createdAt,value
2022-10-08T00:03:02.852Z,15.10
2022-10-08T00:07:25.619Z,15.00
2022-10-08T00:11:47.928Z,14.00
2022-10-08T00:16:17.026Z,12.52
2022-10-08T00:20:39.483Z,13.23
2022-10-08T00:25:01.823Z,12.15
2022-10-08T00:29:24.343Z,13.52
2022-10-08T00:33:50.364Z,14.02
2022-10-08T00:38:12.955Z,13.63
2022-10-08T00:42:35.363Z,12.50
2022-10-08T00:46:57.967Z,12.77
2022-10-08T00:51:20.823Z,12.63
2022-10-08T00:55:44.142Z,12.15
2022-10-08T01:00:15.724Z,13.10
2022-10-08T01:04:40.003Z,13.63
2022-10-08T01:09:22.104Z,13.35
2022-10-08T01:13:52.383Z,14.20
2022-10-08T01:18:43.363Z,11.00
2022-10-08T01:23:48.765Z,11.98
2022-10-08T01:28:50.226Z,11.45
2022-10-08T01:33:40.104Z,10.30
2022-10-08T01:38:07.377Z,10.55
2022-10-08T01:42:32.603Z,10.43
2022-10-08T01:46:59.205Z,9.57
2022-10-08T01:51:41.147Z,10.55
2022-10-08T01:56:06.825Z,10.15
2022-10-08T02:00:29.653Z,10.32
2022-10-08T02:04:55.504Z,10.15
2022-10-08T02:09:18.363Z,10.68
2022-10-08T02:13:41.483Z,11.52
2022-10-08T02:18:10.765Z,10.50
2022-10-08T02:22:45.252Z,10.57
2022-10-08T02:27:11.663Z,9.52
2022-10-08T02:31:52.561Z,10.88
2022-10-08T02:36:22.087Z,10.40
2022-10-08T02:40:50.007Z,10.35
2022-10-08T02:45:31.160Z,10.80
2022-10-08T02:50:03.184Z,10.68
2022-10-08T02:54:25.206Z,10.20
2022-10-08T02:58:48.443Z,10.82
2022-10-08T03:03:26.324Z,11.63
2022-10-08T03:07:52.246Z,12.18
2022-10-08T03:12:14.452Z,12.35
2022-10-08T03:16:48.295Z,12.13
2022-10-08T03:21:14.711Z,14.05
2022-10-08T03:25:37.085Z,14.52
2022-10-08T03:29:59.385Z,14.45
2022-10-08T03:34:21.862Z,14.00
2022-10-08T03:38:44.265Z,12.95
2022-10-08T03:43:06.435Z,12.68
2022-10-08T03:47:28.903Z,12.98
2022-10-08T03:51:51.063Z,12.80
2022-10-08T03:56:20.356Z,12.10
2022-10-08T04:00:43.183Z,12.52
2022-10-08T04:05:06.424Z,12.98
2022-10-08T04:09:28.685Z,13.43
2022-10-08T04:13:50.724Z,13.43
2022-10-08T04:18:14.158Z,13.00
2022-10-08T04:22:36.703Z,13.27
2022-10-08T04:26:59.043Z,13.23
2022-10-08T04:31:23.654Z,12.50
2022-10-08T04:35:46.063Z,13.30
2022-10-08T04:40:09.723Z,15.00
2022-10-08T04:44:31.823Z,13.95
2022-10-08T04:48:56.635Z,15.45
2022-10-08T04:53:19.005Z,15.77
2022-10-08T04:57:41.412Z,14.40
2022-10-08T05:02:03.916Z,15.73
2022-10-08T05:06:29.864Z,16.13
2022-10-08T05:10:52.304Z,17.02
2022-10-08T05:15:14.903Z,16.48
2022-10-08T05:19:37.151Z,16.05
2022-10-08T05:24:07.183Z,16.95
2022-10-08T05:28:30.077Z,17.23
2022-10-08T05:32:52.484Z,17.30
2022-10-08T05:37:14.896Z,16.63
2022-10-08T05:41:38.567Z,16.63
2022-10-08T05:46:00.846Z,16.55
2022-10-08T05:50:23.343Z,17.17
2022-10-08T05:54:45.624Z,16.60
2022-10-08T05:59:10.606Z,16.58
2022-10-08T06:03:33.143Z,16.63
2022-10-08T06:07:58.023Z,17.30
2022-10-08T06:12:20.663Z,17.48
2022-10-08T06:16:43.123Z,16.75
2022-10-08T06:21:12.620Z,16.13
2022-10-08T06:25:37.843Z,16.20
2022-10-08T06:30:00.161Z,16.33
2022-10-08T06:34:22.584Z,15.98
2022-10-08T06:38:59.697Z,15.63
2022-10-08T06:43:22.147Z,14.38
2022-10-08T06:47:44.664Z,15.85
2022-10-08T06:52:06.943Z,14.68
2022-10-08T06:56:29.644Z,13.55
2022-10-08T07:01:06.050Z,12.73
2022-10-08T07:05:28.525Z,12.65
2022-10-08T07:09:50.883Z,11.52
2022-10-08T07:14:13.484Z,11.65
2022-10-08T07:18:37.427Z,11.55
2022-10-08T07:22:59.908Z,9.90
2022-10-08T07:27:22.284Z,9.27
2022-10-08T07:31:44.851Z,8.07
2022-10-08T07:36:16.091Z,8.25
2022-10-08T07:40:39.163Z,6.45
2022-10-08T07:45:01.545Z,6.72
2022-10-08T07:49:24.230Z,5.95
2022-10-08T07:53:47.063Z,6.25
2022-10-08T07:58:09.567Z,5.38
2022-10-08T08:02:32.150Z,5.85
2022-10-08T08:06:54.743Z,5.50
2022-10-08T08:11:20.543Z,6.40
2022-10-08T08:15:46.336Z,5.68
2022-10-08T08:20:17.869Z,6.07
2022-10-08T08:24:40.623Z,5.32
2022-10-08T08:29:07.456Z,5.93
2022-10-08T08:51:21.893Z,5.78
2022-10-08T08:55:47.474Z,6.95
2022-10-08T09:00:24.584Z,6.10
2022-10-08T09:05:01.078Z,5.72
2022-10-08T09:09:49.713Z,7.07
2022-10-08T09:14:17.846Z,4.70
2022-10-08T09:18:49.943Z,4.13
2022-10-08T09:23:22.923Z,4.57
2022-10-08T09:27:55.663Z,4.65
2022-10-08T09:32:22.612Z,3.45
2022-10-08T09:37:06.463Z,3.85
2022-10-08T09:41:30.546Z,3.40
2022-10-08T09:45:54.887Z,3.22
2022-10-08T09:50:19.921Z,3.42
2022-10-08T09:54:49.262Z,3.10
2022-10-08T09:59:25.791Z,3.53
2022-10-08T10:03:57.899Z,3.72
2022-10-08T10:08:52.806Z,2.90
2022-10-08T10:13:38.160Z,2.67
2022-10-08T10:18:11.784Z,2.63
2022-10-08T10:23:02.084Z,3.00
2022-10-08T10:27:38.963Z,3.88
2022-10-08T10:32:14.394Z,3.70
2022-10-08T10:36:46.004Z,3.42
2022-10-08T10:41:18.893Z,2.60
2022-10-08T10:45:46.819Z,2.97
2022-10-08T10:50:23.104Z,3.50
2022-10-08T10:55:26.584Z,3.20
2022-10-08T11:00:00.596Z,2.90
2022-10-08T11:04:59.391Z,2.65
2022-10-08T11:09:55.136Z,2.10
2022-10-08T11:14:39.104Z,2.63
2022-10-08T11:19:10.843Z,1.77
2022-10-08T11:23:44.083Z,2.38
2022-10-08T11:28:32.546Z,2.38
2022-10-08T11:32:57.244Z,1.85
2022-10-08T11:37:22.179Z,1.65
2022-10-08T11:41:59.903Z,1.70
2022-10-08T11:46:31.778Z,1.60
2022-10-08T11:50:54.344Z,1.77
2022-10-08T11:55:26.824Z,1.60
2022-10-08T12:00:08.558Z,1.80
2022-10-08T12:04:38.585Z,1.80
2022-10-08T12:09:07.615Z,1.80
2022-10-08T12:13:30.844Z,1.73
2022-10-08T12:18:00.083Z,1.70
2022-10-08T12:22:25.519Z,1.58
2022-10-08T12:27:18.786Z,1.60
2022-10-08T12:31:44.218Z,1.80
2022-10-08T12:36:26.603Z,4.28
2022-10-08T12:41:09.816Z,1.83
2022-10-08T12:45:47.985Z,1.70
2022-10-08T12:50:33.936Z,1.60
2022-10-08T12:54:58.923Z,1.60
2022-10-08T12:59:26.304Z,1.83
2022-10-08T13:04:07.385Z,1.55
2022-10-08T13:08:35.853Z,1.55
2022-10-08T13:13:07.224Z,1.80
2022-10-08T13:17:33.824Z,1.50
2022-10-08T13:22:02.901Z,1.88
2022-10-08T13:26:50.264Z,1.90
2022-10-08T13:31:24.182Z,1.90
2022-10-08T13:36:19.968Z,1.42
2022-10-08T13:40:51.571Z,2.22
2022-10-08T13:45:39.463Z,2.90
2022-10-08T13:50:02.417Z,2.60
2022-10-08T13:54:29.203Z,1.83
2022-10-08T13:58:51.824Z,2.80
2022-10-08T14:03:14.783Z,2.17
2022-10-08T14:07:42.545Z,1.77
2022-10-08T14:12:05.706Z,2.28
2022-10-08T14:16:28.361Z,2.10
2022-10-08T14:20:51.945Z,1.75
2022-10-08T14:25:22.424Z,1.60
2022-10-08T14:29:44.746Z,2.10
2022-10-08T14:34:07.823Z,2.03
2022-10-08T14:38:33.036Z,2.22
2022-10-08T14:42:55.644Z,2.17
2022-10-08T14:47:18.021Z,2.00
2022-10-08T14:51:40.783Z,1.67
2022-10-08T14:56:13.861Z,2.70
2022-10-08T15:00:36.729Z,2.47
2022-10-08T15:04:59.061Z,2.67
2022-10-08T15:09:22.624Z,2.85
2022-10-08T15:13:44.825Z,3.05
2022-10-08T15:18:08.240Z,2.90
2022-10-08T15:22:33.072Z,2.95
2022-10-08T15:26:56.328Z,2.40
2022-10-08T15:31:22.141Z,2.85
2022-10-08T15:35:44.975Z,2.83
2022-10-08T15:40:08.223Z,2.80
2022-10-08T15:44:32.543Z,3.03
2022-10-08T15:48:57.503Z,3.33
2022-10-08T15:53:23.381Z,3.13
2022-10-08T15:57:46.335Z,2.88
2022-10-08T16:02:15.541Z,3.42
2022-10-08T16:06:39.816Z,3.83
2022-10-08T16:11:19.471Z,3.78
2022-10-08T16:15:42.224Z,3.85
2022-10-08T16:20:05.385Z,3.58
2022-10-08T16:24:28.083Z,3.38
2022-10-08T16:28:55.483Z,3.80
2022-10-08T16:33:18.164Z,4.22
2022-10-08T16:37:40.624Z,5.03
2022-10-08T16:42:06.223Z,5.32
2022-10-08T16:46:36.863Z,6.47
2022-10-08T16:51:03.498Z,5.10
2022-10-08T16:55:26.101Z,6.53
2022-10-08T16:59:50.421Z,5.80
2022-10-08T17:04:14.807Z,6.25
2022-10-08T17:08:37.383Z,6.45
2022-10-08T17:12:59.903Z,7.25
2022-10-08T17:17:22.476Z,7.63
2022-10-08T17:21:45.244Z,5.90
2022-10-08T17:26:28.125Z,5.75
2022-10-08T17:30:50.500Z,6.25
2022-10-08T17:35:13.183Z,6.15
2022-10-08T17:39:35.946Z,5.80
2022-10-08T17:44:02.191Z,6.70
2022-10-08T17:48:25.082Z,7.85
2022-10-08T17:52:47.854Z,8.43
2022-10-08T17:57:10.523Z,9.80
2022-10-08T18:01:37.792Z,9.93
2022-10-08T18:06:02.617Z,11.02
2022-10-08T18:10:25.643Z,12.02
2022-10-08T18:14:49.624Z,11.05
2022-10-08T18:19:12.926Z,11.30
2022-10-08T18:23:36.926Z,11.25
2022-10-08T18:27:59.132Z,11.57
2022-10-08T18:32:21.575Z,10.55
2022-10-08T18:36:44.877Z,12.13
2022-10-08T18:41:24.243Z,13.32
2022-10-08T18:45:46.949Z,13.10
2022-10-08T18:50:09.638Z,13.25
2022-10-08T18:54:31.843Z,35.75
2022-10-08T18:58:56.924Z,13.18
2022-10-08T19:03:19.560Z,12.07
2022-10-08T19:07:41.984Z,11.73
2022-10-08T19:12:06.285Z,9.98
2022-10-08T19:16:29.666Z,9.82
2022-10-08T19:20:52.218Z,10.55
2022-10-08T19:25:14.931Z,12.15
2022-10-08T19:29:39.003Z,20.15
2022-10-08T19:34:07.473Z,10.98
2022-10-08T19:38:30.523Z,11.40
2022-10-08T19:42:52.930Z,8.65
2022-10-08T19:47:15.145Z,8.88
2022-10-08T19:51:39.243Z,9.00
2022-10-08T19:56:08.904Z,9.30
2022-10-08T20:00:31.523Z,9.00
2022-10-08T20:04:57.245Z,9.77
2022-10-08T20:09:23.564Z,9.98
2022-10-08T20:13:48.266Z,7.82
2022-10-08T20:18:11.316Z,7.50
2022-10-08T20:22:33.716Z,8.00
2022-10-08T20:26:56.387Z,7.88
2022-10-08T20:31:26.243Z,8.68
2022-10-08T20:35:48.898Z,8.88
2022-10-08T20:40:12.696Z,9.45
2022-10-08T20:44:35.244Z,9.80
2022-10-08T20:48:58.495Z,9.30
2022-10-08T20:53:21.123Z,9.63
2022-10-08T20:57:43.543Z,9.90
2022-10-08T21:02:06.864Z,9.73
2022-10-08T21:06:39.505Z,9.73
2022-10-08T21:11:04.535Z,10.05
2022-10-08T21:15:27.221Z,11.70
2022-10-08T21:19:49.618Z,10.05
2022-10-08T21:24:12.428Z,11.00
2022-10-08T21:28:35.943Z,11.40
2022-10-08T21:32:58.765Z,12.45
2022-10-08T21:37:21.426Z,15.30
2022-10-08T21:41:44.692Z,13.52
2022-10-08T21:46:08.925Z,12.82
2022-10-08T21:50:35.261Z,15.02
2022-10-08T21:54:58.285Z,14.23
2022-10-08T21:59:20.736Z,14.77
2022-10-08T22:03:43.148Z,15.82
2022-10-08T22:08:05.544Z,15.38
2022-10-08T22:12:28.223Z,16.52
2022-10-08T22:16:50.984Z,17.38
2022-10-08T22:21:20.942Z,17.90
2022-10-08T22:25:51.724Z,17.23
2022-10-08T22:30:14.346Z,17.35
2022-10-08T22:34:36.545Z,17.13
2022-10-08T22:38:59.683Z,19.42
2022-10-08T22:43:22.195Z,19.55
2022-10-08T22:47:46.703Z,20.63
2022-10-08T22:52:09.126Z,22.17
2022-10-08T22:56:32.323Z,21.80
2022-10-08T23:01:08.224Z,22.00
2022-10-08T23:05:30.163Z,22.40
2022-10-08T23:09:52.348Z,21.15
2022-10-08T23:14:14.784Z,18.30
2022-10-08T23:18:40.564Z,18.75
2022-10-08T23:23:03.064Z,19.02
2022-10-08T23:27:25.724Z,17.83
2022-10-08T23:31:48.375Z,17.15
2022-10-08T23:36:15.324Z,16.88
2022-10-08T23:40:37.764Z,16.13
2022-10-08T23:44:59.904Z,15.32
2022-10-08T23:49:22.384Z,14.93
2022-10-08T23:53:46.386Z,15.38
2022-10-08T23:58:08.524Z,15.25
